Oxelosund, Sweden
Current Conditions -  °F | °C
As of 3:50 PM on Tuesday 21 Oct 2014 (Local Time) from ESKN Reporting Station
Drizzle Drizzle  
Wind Chill: 41°   Ceiling: 1200
Heat Index: 46°   Visibility: 2.5mi
Dew Point: 45°   Wind: 12mph
Humidity: 93%   Direction: 100°E
Pressure: 29.65"   Gusts: NA
Location:  58.67°N, 17.1°E
Report Text: ESKN 211350Z 10010KT 4000 -DZ BR BKN012 08/07 Q1004
Loading
Personal Weather Stations






























Interactive Weather Map New forecast layout! Learn more

10-Day Weather Forecast

Advertisements
Track Severe Weather on mobile